sensor_id;sensor_type;location;lat;lon;timestamp;pressure;altitude;pressure_sealevel;temperature;humidity
55410;BME280;41279;43.546;16.426;2023-02-14T00:01:52;52362.25;;;-146.77;46.43
55410;BME280;41279;43.546;16.426;2023-02-14T00:04:18;52372.28;;;-146.77;44.94
55410;BME280;41279;43.546;16.426;2023-02-14T00:06:44;52384.28;;;-146.77;43.95
55410;BME280;41279;43.546;16.426;2023-02-14T00:09:12;52382.28;;;-146.77;45.79
55410;BME280;41279;43.546;16.426;2023-02-14T00:11:38;52370.28;;;-146.77;44.14
55410;BME280;41279;43.546;16.426;2023-02-14T00:14:05;52380.28;;;-146.77;45.87
55410;BME280;41279;43.546;16.426;2023-02-14T00:16:49;52420.31;;;-146.77;44.12
55410;BME280;41279;43.546;16.426;2023-02-14T00:19:16;52416.31;;;-146.77;42.80
55410;BME280;41279;43.546;16.426;2023-02-14T00:21:42;52402.31;;;-146.77;45.31
55410;BME280;41279;43.546;16.426;2023-02-14T00:24:18;52424.31;;;-146.77;45.36
55410;BME280;41279;43.546;16.426;2023-02-14T00:26:43;52362.25;;;-146.77;45.76
55410;BME280;41279;43.546;16.426;2023-02-14T00:29:16;52370.28;;;-146.77;46.09
55410;BME280;41279;43.546;16.426;2023-02-14T00:31:48;52390.28;;;-146.77;43.92
55410;BME280;41279;43.546;16.426;2023-02-14T00:34:15;52390.28;;;-146.77;43.25
55410;BME280;41279;43.546;16.426;2023-02-14T00:36:48;52386.28;;;-146.77;42.75
55410;BME280;41279;43.546;16.426;2023-02-14T00:39:15;52372.28;;;-146.77;41.85
55410;BME280;41279;43.546;16.426;2023-02-14T00:41:41;52378.28;;;-146.77;41.31
55410;BME280;41279;43.546;16.426;2023-02-14T00:44:09;52390.28;;;-146.77;41.38
55410;BME280;41279;43.546;16.426;2023-02-14T00:46:35;52376.28;;;-146.77;42.10
55410;BME280;41279;43.546;16.426;2023-02-14T00:49:02;52368.28;;;-146.77;41.43
55410;BME280;41279;43.546;16.426;2023-02-14T00:51:28;52382.28;;;-146.77;42.44
55410;BME280;41279;43.546;16.426;2023-02-14T00:53:53;52374.28;;;-146.77;43.98
55410;BME280;41279;43.546;16.426;2023-02-14T00:56:19;52370.28;;;-146.77;46.18
55410;BME280;41279;43.546;16.426;2023-02-14T00:58:46;52344.25;;;-146.77;43.21
55410;BME280;41279;43.546;16.426;2023-02-14T01:01:13;52424.31;;;-146.77;40.84
55410;BME280;41279;43.546;16.426;2023-02-14T01:03:39;52376.28;;;-146.77;41.68
55410;BME280;41279;43.546;16.426;2023-02-14T01:06:05;52380.28;;;-146.77;41.35
55410;BME280;41279;43.546;16.426;2023-02-14T01:08:31;52378.28;;;-146.77;41.63
55410;BME280;41279;43.546;16.426;2023-02-14T01:10:57;52384.28;;;-146.77;42.55
55410;BME280;41279;43.546;16.426;2023-02-14T01:13:23;52366.28;;;-146.77;44.98
55410;BME280;41279;43.546;16.426;2023-02-14T01:15:50;52358.25;;;-146.77;44.75
55410;BME280;41279;43.546;16.426;2023-02-14T01:18:17;52362.25;;;-146.77;45.35
55410;BME280;41279;43.546;16.426;2023-02-14T01:20:44;52350.25;;;-146.77;46.53
55410;BME280;41279;43.546;16.426;2023-02-14T01:23:10;52354.25;;;-146.77;46.52
55410;BME280;41279;43.546;16.426;2023-02-14T01:25:37;52378.28;;;-146.77;45.06
55410;BME280;41279;43.546;16.426;2023-02-14T01:28:03;52370.28;;;-146.77;44.28
55410;BME280;41279;43.546;16.426;2023-02-14T01:30:29;52374.28;;;-146.77;41.29
55410;BME280;41279;43.546;16.426;2023-02-14T01:32:54;52354.25;;;-146.77;39.83
55410;BME280;41279;43.546;16.426;2023-02-14T01:35:20;52356.25;;;-146.77;38.88
55410;BME280;41279;43.546;16.426;2023-02-14T01:37:45;52374.28;;;-146.77;37.67
55410;BME280;41279;43.546;16.426;2023-02-14T01:40:12;52358.25;;;-146.77;36.90
55410;BME280;41279;43.546;16.426;2023-02-14T01:42:38;52362.25;;;-146.77;37.99
55410;BME280;41279;43.546;16.426;2023-02-14T01:45:25;52362.25;;;-146.77;37.53
55410;BME280;41279;43.546;16.426;2023-02-14T01:47:53;52358.25;;;-146.77;37.87
55410;BME280;41279;43.546;16.426;2023-02-14T01:50:24;52372.28;;;-146.77;38.66
55410;BME280;41279;43.546;16.426;2023-02-14T01:52:57;52354.25;;;-146.77;37.81
55410;BME280;41279;43.546;16.426;2023-02-14T01:55:29;52372.28;;;-146.77;38.07
55410;BME280;41279;43.546;16.426;2023-02-14T01:58:12;52388.28;;;-146.77;37.36
55410;BME280;41279;43.546;16.426;2023-02-14T02:00:40;52384.28;;;-146.77;36.93
55410;BME280;41279;43.546;16.426;2023-02-14T02:03:35;52366.28;;;-146.77;37.31
55410;BME280;41279;43.546;16.426;2023-02-14T02:06:30;52388.28;;;-146.77;37.39
55410;BME280;41279;43.546;16.426;2023-02-14T02:11:35;52374.28;;;-146.77;37.85
55410;BME280;41279;43.546;16.426;2023-02-14T02:14:03;52398.31;;;-146.77;39.47
55410;BME280;41279;43.546;16.426;2023-02-14T02:16:39;52382.28;;;-146.77;43.58
55410;BME280;41279;43.546;16.426;2023-02-14T02:28:21;52396.31;;;-146.77;39.30
55410;BME280;41279;43.546;16.426;2023-02-14T02:34:03;52344.25;;;-146.77;41.58
55410;BME280;41279;43.546;16.426;2023-02-14T02:39:45;52380.28;;;-146.77;40.35
55410;BME280;41279;43.546;16.426;2023-02-14T02:48:08;52380.28;;;-146.77;43.30
55410;BME280;41279;43.546;16.426;2023-02-14T02:50:41;52384.28;;;-146.77;42.82
55410;BME280;41279;43.546;16.426;2023-02-14T02:53:51;52386.28;;;-146.77;41.15
55410;BME280;41279;43.546;16.426;2023-02-14T02:56:30;52384.28;;;-146.77;42.67
55410;BME280;41279;43.546;16.426;2023-02-14T02:59:19;52380.28;;;-146.77;40.94
55410;BME280;41279;43.546;16.426;2023-02-14T03:02:12;52426.34;;;-146.77;40.00
55410;BME280;41279;43.546;16.426;2023-02-14T03:04:47;52404.31;;;-146.77;39.13
55410;BME280;41279;43.546;16.426;2023-02-14T03:10:01;52366.28;;;-146.77;42.71
55410;BME280;41279;43.546;16.426;2023-02-14T03:20:45;52360.25;;;-146.77;43.12
55410;BME280;41279;43.546;16.426;2023-02-14T03:23:16;52358.25;;;-146.77;41.10
55410;BME280;41279;43.546;16.426;2023-02-14T03:25:58;52370.28;;;-146.77;42.39
55410;BME280;41279;43.546;16.426;2023-02-14T03:28:41;52366.28;;;-146.77;43.87
55410;BME280;41279;43.546;16.426;2023-02-14T03:33:54;52396.31;;;-146.77;40.76
55410;BME280;41279;43.546;16.426;2023-02-14T03:36:30;52382.28;;;-146.77;40.51
55410;BME280;41279;43.546;16.426;2023-02-14T03:42:21;52354.25;;;-146.77;50.01
55410;BME280;41279;43.546;16.426;2023-02-14T03:44:51;52380.28;;;-146.77;56.62
55410;BME280;41279;43.546;16.426;2023-02-14T03:47:23;52384.28;;;-146.77;56.15
55410;BME280;41279;43.546;16.426;2023-02-14T03:50:03;52330.22;;;-146.77;52.79
55410;BME280;41279;43.546;16.426;2023-02-14T03:52:31;52338.25;;;-146.77;53.45
55410;BME280;41279;43.546;16.426;2023-02-14T03:54:59;52364.28;;;-146.77;47.68
55410;BME280;41279;43.546;16.426;2023-02-14T03:57:45;52346.25;;;-146.77;49.23
55410;BME280;41279;43.546;16.426;2023-02-14T04:00:14;52360.25;;;-146.77;48.57
55410;BME280;41279;43.546;16.426;2023-02-14T04:02:44;52362.25;;;-146.77;48.49
55410;BME280;41279;43.546;16.426;2023-02-14T04:05:15;52362.25;;;-146.77;47.96
55410;BME280;41279;43.546;16.426;2023-02-14T04:07:48;52374.28;;;-146.77;47.74
55410;BME280;41279;43.546;16.426;2023-02-14T04:10:15;52368.28;;;-146.77;47.35
55410;BME280;41279;43.546;16.426;2023-02-14T04:12:40;52382.28;;;-146.77;45.16
55410;BME280;41279;43.546;16.426;2023-02-14T04:15:06;52368.28;;;-146.77;45.80
55410;BME280;41279;43.546;16.426;2023-02-14T04:17:32;52358.25;;;-146.77;47.13
55410;BME280;41279;43.546;16.426;2023-02-14T04:20:16;52352.25;;;-146.77;45.34
55410;BME280;41279;43.546;16.426;2023-02-14T04:22:42;52368.28;;;-146.77;46.03
55410;BME280;41279;43.546;16.426;2023-02-14T04:25:07;52346.25;;;-146.77;45.92
55410;BME280;41279;43.546;16.426;2023-02-14T04:27:33;52352.25;;;-146.77;45.06
55410;BME280;41279;43.546;16.426;2023-02-14T04:29:59;52338.25;;;-146.77;45.69
55410;BME280;41279;43.546;16.426;2023-02-14T04:32:24;52326.22;;;-146.77;46.15
55410;BME280;41279;43.546;16.426;2023-02-14T04:34:50;52348.25;;;-146.77;47.94
55410;BME280;41279;43.546;16.426;2023-02-14T04:37:17;52338.25;;;-146.77;46.79
55410;BME280;41279;43.546;16.426;2023-02-14T04:39:43;52378.28;;;-146.77;44.04
55410;BME280;41279;43.546;16.426;2023-02-14T04:42:08;52394.28;;;-146.77;43.93
55410;BME280;41279;43.546;16.426;2023-02-14T04:44:34;52354.25;;;-146.77;43.34
55410;BME280;41279;43.546;16.426;2023-02-14T04:47:00;52354.25;;;-146.77;43.53
55410;BME280;41279;43.546;16.426;2023-02-14T04:49:26;52378.28;;;-146.77;42.33
55410;BME280;41279;43.546;16.426;2023-02-14T04:51:51;52366.28;;;-146.77;42.44
55410;BME280;41279;43.546;16.426;2023-02-14T04:54:17;52390.28;;;-146.77;43.95
55410;BME280;41279;43.546;16.426;2023-02-14T04:56:42;52384.28;;;-146.77;44.47
55410;BME280;41279;43.546;16.426;2023-02-14T04:59:08;52374.28;;;-146.77;43.98
55410;BME280;41279;43.546;16.426;2023-02-14T05:01:33;52372.28;;;-146.77;43.67
55410;BME280;41279;43.546;16.426;2023-02-14T05:03:58;52350.25;;;-146.77;46.47
55410;BME280;41279;43.546;16.426;2023-02-14T05:06:24;52352.25;;;-146.77;45.46
55410;BME280;41279;43.546;16.426;2023-02-14T05:08:49;52344.25;;;-146.77;47.06
55410;BME280;41279;43.546;16.426;2023-02-14T05:11:15;52352.25;;;-146.77;45.73
55410;BME280;41279;43.546;16.426;2023-02-14T05:13:40;52358.25;;;-146.77;46.76
55410;BME280;41279;43.546;16.426;2023-02-14T05:16:06;52364.28;;;-146.77;47.12
55410;BME280;41279;43.546;16.426;2023-02-14T05:18:31;52382.28;;;-146.77;44.90
55410;BME280;41279;43.546;16.426;2023-02-14T05:20:57;52372.28;;;-146.77;44.24
55410;BME280;41279;43.546;16.426;2023-02-14T05:23:22;52332.22;;;-146.77;46.92
55410;BME280;41279;43.546;16.426;2023-02-14T05:25:49;52326.22;;;-146.77;46.04
55410;BME280;41279;43.546;16.426;2023-02-14T05:28:15;52374.28;;;-146.77;43.45
55410;BME280;41279;43.546;16.426;2023-02-14T05:30:41;52390.28;;;-146.77;43.47
55410;BME280;41279;43.546;16.426;2023-02-14T05:33:06;52364.28;;;-146.77;44.87
55410;BME280;41279;43.546;16.426;2023-02-14T05:35:32;52352.25;;;-146.77;42.61
55410;BME280;41279;43.546;16.426;2023-02-14T05:37:58;52360.25;;;-146.77;43.39
55410;BME280;41279;43.546;16.426;2023-02-14T05:40:24;52348.25;;;-146.77;43.14
55410;BME280;41279;43.546;16.426;2023-02-14T05:42:51;52366.28;;;-146.77;43.99
55410;BME280;41279;43.546;16.426;2023-02-14T05:45:23;52338.25;;;-146.77;45.44
55410;BME280;41279;43.546;16.426;2023-02-14T05:47:49;52372.28;;;-146.77;43.97
55410;BME280;41279;43.546;16.426;2023-02-14T05:50:15;52346.25;;;-146.77;43.58
55410;BME280;41279;43.546;16.426;2023-02-14T05:52:41;52370.28;;;-146.77;42.59
55410;BME280;41279;43.546;16.426;2023-02-14T05:55:07;52350.25;;;-146.77;43.50
55410;BME280;41279;43.546;16.426;2023-02-14T05:57:33;52364.28;;;-146.77;43.36
55410;BME280;41279;43.546;16.426;2023-02-14T05:59:59;52382.28;;;-146.77;41.78
55410;BME280;41279;43.546;16.426;2023-02-14T06:02:25;52366.28;;;-146.77;44.13
55410;BME280;41279;43.546;16.426;2023-02-14T06:04:50;52358.25;;;-146.77;43.61
55410;BME280;41279;43.546;16.426;2023-02-14T06:07:16;52348.25;;;-146.77;44.40
55410;BME280;41279;43.546;16.426;2023-02-14T06:09:41;52362.25;;;-146.77;45.06
55410;BME280;41279;43.546;16.426;2023-02-14T06:12:07;52346.25;;;-146.77;43.38
55410;BME280;41279;43.546;16.426;2023-02-14T06:14:32;52364.28;;;-146.77;42.67
55410;BME280;41279;43.546;16.426;2023-02-14T06:16:58;52350.25;;;-146.77;41.66
55410;BME280;41279;43.546;16.426;2023-02-14T06:19:23;52366.28;;;-146.77;41.15
55410;BME280;41279;43.546;16.426;2023-02-14T06:21:48;52398.31;;;-146.77;39.09
55410;BME280;41279;43.546;16.426;2023-02-14T06:24:14;52390.28;;;-146.77;40.44
55410;BME280;41279;43.546;16.426;2023-02-14T06:26:40;52362.25;;;-146.77;39.28
55410;BME280;41279;43.546;16.426;2023-02-14T06:29:05;52372.28;;;-146.77;38.45
55410;BME280;41279;43.546;16.426;2023-02-14T06:31:30;52360.25;;;-146.77;39.78
55410;BME280;41279;43.546;16.426;2023-02-14T06:34:03;52362.25;;;-146.77;38.86
55410;BME280;41279;43.546;16.426;2023-02-14T06:36:28;52392.28;;;-146.77;38.43
55410;BME280;41279;43.546;16.426;2023-02-14T06:38:54;52406.31;;;-146.77;37.97
55410;BME280;41279;43.546;16.426;2023-02-14T06:41:19;52426.34;;;-146.77;37.23
55410;BME280;41279;43.546;16.426;2023-02-14T06:43:46;52438.34;;;-146.77;36.65
55410;BME280;41279;43.546;16.426;2023-02-14T06:46:15;52448.34;;;-146.77;36.50
55410;BME280;41279;43.546;16.426;2023-02-14T06:48:40;52390.28;;;-146.77;37.79
55410;BME280;41279;43.546;16.426;2023-02-14T06:51:06;52398.31;;;-146.77;37.85
55410;BME280;41279;43.546;16.426;2023-02-14T06:53:32;52410.31;;;-146.77;37.50
55410;BME280;41279;43.546;16.426;2023-02-14T06:55:57;52438.34;;;-146.77;36.29
55410;BME280;41279;43.546;16.426;2023-02-14T06:58:23;52384.28;;;-146.77;36.75
55410;BME280;41279;43.546;16.426;2023-02-14T07:00:48;52410.31;;;-146.77;36.01
55410;BME280;41279;43.546;16.426;2023-02-14T07:03:17;52414.31;;;-146.77;35.16
55410;BME280;41279;43.546;16.426;2023-02-14T07:05:43;52358.25;;;-146.77;35.21
55410;BME280;41279;43.546;16.426;2023-02-14T07:08:09;52354.25;;;-146.77;36.01
55410;BME280;41279;43.546;16.426;2023-02-14T07:10:35;52378.28;;;-146.77;36.06
55410;BME280;41279;43.546;16.426;2023-02-14T07:13:00;52376.28;;;-146.77;36.01
55410;BME280;41279;43.546;16.426;2023-02-14T07:15:26;52366.28;;;-146.77;36.67
55410;BME280;41279;43.546;16.426;2023-02-14T07:17:51;52398.31;;;-146.77;36.71
55410;BME280;41279;43.546;16.426;2023-02-14T07:20:17;52322.22;;;-146.77;36.84
55410;BME280;41279;43.546;16.426;2023-02-14T07:22:43;52360.25;;;-146.77;36.54
55410;BME280;41279;43.546;16.426;2023-02-14T07:25:09;52386.28;;;-146.77;37.20
55410;BME280;41279;43.546;16.426;2023-02-14T07:27:34;52350.25;;;-146.77;37.53
55410;BME280;41279;43.546;16.426;2023-02-14T07:30:00;52398.31;;;-146.77;37.18
55410;BME280;41279;43.546;16.426;2023-02-14T07:32:26;52368.28;;;-146.77;36.69
55410;BME280;41279;43.546;16.426;2023-02-14T07:34:51;52382.28;;;-146.77;36.46
55410;BME280;41279;43.546;16.426;2023-02-14T07:37:16;52372.28;;;-146.77;36.33
55410;BME280;41279;43.546;16.426;2023-02-14T07:39:43;52390.28;;;-146.77;35.98
55410;BME280;41279;43.546;16.426;2023-02-14T07:42:09;52426.34;;;-146.77;36.12
55410;BME280;41279;43.546;16.426;2023-02-14T07:44:35;52438.34;;;-146.77;36.13
55410;BME280;41279;43.546;16.426;2023-02-14T07:47:04;52428.34;;;-146.77;36.09
55410;BME280;41279;43.546;16.426;2023-02-14T07:49:29;52436.34;;;-146.77;37.43
55410;BME280;41279;43.546;16.426;2023-02-14T07:51:55;52412.31;;;-146.77;37.13
55410;BME280;41279;43.546;16.426;2023-02-14T07:54:20;52450.34;;;-146.77;36.00
55410;BME280;41279;43.546;16.426;2023-02-14T07:56:46;52456.38;;;-146.77;35.80
55410;BME280;41279;43.546;16.426;2023-02-14T07:59:11;52424.31;;;-146.77;35.95
55410;BME280;41279;43.546;16.426;2023-02-14T08:01:37;52428.34;;;-146.77;35.37
55410;BME280;41279;43.546;16.426;2023-02-14T08:04:02;52462.38;;;-146.77;34.86
55410;BME280;41279;43.546;16.426;2023-02-14T08:06:28;52478.38;;;-146.77;34.44
55410;BME280;41279;43.546;16.426;2023-02-14T08:08:53;52440.34;;;-146.77;34.27
55410;BME280;41279;43.546;16.426;2023-02-14T08:11:18;52470.38;;;-146.77;33.78
55410;BME280;41279;43.546;16.426;2023-02-14T08:14:03;52410.31;;;-146.77;33.42
55410;BME280;41279;43.546;16.426;2023-02-14T08:16:29;52408.31;;;-146.77;34.49
55410;BME280;41279;43.546;16.426;2023-02-14T08:18:56;52356.25;;;-146.77;35.84
55410;BME280;41279;43.546;16.426;2023-02-14T08:21:22;52404.31;;;-146.77;34.15
55410;BME280;41279;43.546;16.426;2023-02-14T08:23:47;52396.31;;;-146.77;34.10
55410;BME280;41279;43.546;16.426;2023-02-14T08:26:13;52380.28;;;-146.77;34.75
55410;BME280;41279;43.546;16.426;2023-02-14T08:28:38;52390.28;;;-146.77;35.09
55410;BME280;41279;43.546;16.426;2023-02-14T08:31:04;52394.28;;;-146.77;35.58
55410;BME280;41279;43.546;16.426;2023-02-14T08:33:29;52370.28;;;-146.77;35.90
55410;BME280;41279;43.546;16.426;2023-02-14T08:35:55;52362.25;;;-146.77;35.49
55410;BME280;41279;43.546;16.426;2023-02-14T08:38:21;52374.28;;;-146.77;35.51
55410;BME280;41279;43.546;16.426;2023-02-14T08:40:46;52388.28;;;-146.77;34.57
55410;BME280;41279;43.546;16.426;2023-02-14T08:43:12;52400.31;;;-146.77;35.37
55410;BME280;41279;43.546;16.426;2023-02-14T08:45:38;52402.31;;;-146.77;34.68
55410;BME280;41279;43.546;16.426;2023-02-14T08:48:08;52410.31;;;-146.77;33.91
55410;BME280;41279;43.546;16.426;2023-02-14T08:50:34;52430.34;;;-146.77;33.57
55410;BME280;41279;43.546;16.426;2023-02-14T08:53:00;52434.34;;;-146.77;33.04
55410;BME280;41279;43.546;16.426;2023-02-14T08:55:26;52454.34;;;-146.77;32.74
55410;BME280;41279;43.546;16.426;2023-02-14T08:57:56;52436.34;;;-146.77;32.39
55410;BME280;41279;43.546;16.426;2023-02-14T09:00:22;52434.34;;;-146.77;32.15
55410;BME280;41279;43.546;16.426;2023-02-14T09:02:51;52450.34;;;-146.77;32.15
55410;BME280;41279;43.546;16.426;2023-02-14T09:05:17;52432.34;;;-146.77;32.30
55410;BME280;41279;43.546;16.426;2023-02-14T09:07:43;52418.31;;;-146.77;32.45
55410;BME280;41279;43.546;16.426;2023-02-14T09:10:09;52438.34;;;-146.77;32.24
55410;BME280;41279;43.546;16.426;2023-02-14T09:12:38;52424.31;;;-146.77;33.56
55410;BME280;41279;43.546;16.426;2023-02-14T09:15:03;52434.34;;;-146.77;34.30
55410;BME280;41279;43.546;16.426;2023-02-14T09:17:29;52424.31;;;-146.77;34.00
55410;BME280;41279;43.546;16.426;2023-02-14T09:19:54;52436.34;;;-146.77;33.97
55410;BME280;41279;43.546;16.426;2023-02-14T09:22:20;52416.31;;;-146.77;37.87
55410;BME280;41279;43.546;16.426;2023-02-14T09:24:45;52440.34;;;-146.77;35.59
55410;BME280;41279;43.546;16.426;2023-02-14T09:27:11;52386.28;;;-146.77;38.31
55410;BME280;41279;43.546;16.426;2023-02-14T09:29:37;52476.38;;;-146.77;37.42
55410;BME280;41279;43.546;16.426;2023-02-14T09:32:02;52494.41;;;-146.77;36.62
55410;BME280;41279;43.546;16.426;2023-02-14T09:34:29;52476.38;;;-146.77;35.41
55410;BME280;41279;43.546;16.426;2023-02-14T09:37:14;52502.41;;;-146.77;34.32
55410;BME280;41279;43.546;16.426;2023-02-14T09:39:58;52498.41;;;-146.77;33.87
55410;BME280;41279;43.546;16.426;2023-02-14T09:45:17;52516.41;;;-146.77;34.63
55410;BME280;41279;43.546;16.426;2023-02-14T09:52:51;52524.44;;;-146.77;33.52
55410;BME280;41279;43.546;16.426;2023-02-14T09:55:19;52490.41;;;-146.77;34.50
55410;BME280;41279;43.546;16.426;2023-02-14T09:58:02;52532.44;;;-146.77;35.20
55410;BME280;41279;43.546;16.426;2023-02-14T10:00:58;52528.44;;;-146.77;34.70
55410;BME280;41279;43.546;16.426;2023-02-14T10:11:23;52496.41;;;-146.77;35.65
55410;BME280;41279;43.546;16.426;2023-02-14T10:13:58;52472.38;;;-146.77;36.82
55410;BME280;41279;43.546;16.426;2023-02-14T10:16:31;52474.38;;;-146.77;36.13
55410;BME280;41279;43.546;16.426;2023-02-14T10:19:18;52452.34;;;-146.77;36.71
55410;BME280;41279;43.546;16.426;2023-02-14T10:21:54;52526.44;;;-146.77;34.50
55410;BME280;41279;43.546;16.426;2023-02-14T10:24:48;52526.44;;;-146.77;35.15
55410;BME280;41279;43.546;16.426;2023-02-14T10:27:32;52492.41;;;-146.77;35.82
55410;BME280;41279;43.546;16.426;2023-02-14T10:29:59;52508.41;;;-146.77;35.31
55410;BME280;41279;43.546;16.426;2023-02-14T10:32:46;52498.41;;;-146.77;36.35
55410;BME280;41279;43.546;16.426;2023-02-14T10:41:04;52588.50;;;-146.77;35.11
55410;BME280;41279;43.546;16.426;2023-02-14T10:46:35;52518.44;;;-146.77;37.18
55410;BME280;41279;43.546;16.426;2023-02-14T10:52:14;52620.53;;;-146.77;35.84
55410;BME280;41279;43.546;16.426;2023-02-14T10:54:43;52560.47;;;-146.77;37.71
55410;BME280;41279;43.546;16.426;2023-02-14T10:57:32;52506.41;;;-146.77;37.87
55410;BME280;41279;43.546;16.426;2023-02-14T11:02:35;52482.38;;;-146.77;36.80
55410;BME280;41279;43.546;16.426;2023-02-14T11:05:03;52594.50;;;-146.77;35.97
55410;BME280;41279;43.546;16.426;2023-02-14T11:07:29;52600.50;;;-146.77;36.32
55410;BME280;41279;43.546;16.426;2023-02-14T11:09:55;52596.50;;;-146.77;35.59
55410;BME280;41279;43.546;16.426;2023-02-14T11:17:33;52664.59;;;-146.77;33.08
55410;BME280;41279;43.546;16.426;2023-02-14T11:20:20;52686.59;;;-146.77;32.21
55410;BME280;41279;43.546;16.426;2023-02-14T11:22:47;52652.56;;;-146.77;33.46
55410;BME280;41279;43.546;16.426;2023-02-14T11:25:26;52658.56;;;-146.77;32.80
55410;BME280;41279;43.546;16.426;2023-02-14T11:30:29;52706.63;;;-146.77;32.12
55410;BME280;41279;43.546;16.426;2023-02-14T11:33:02;52662.56;;;-146.77;32.57
55410;BME280;41279;43.546;16.426;2023-02-14T11:35:30;52614.53;;;-146.77;32.26
55410;BME280;41279;43.546;16.426;2023-02-14T11:38:01;52660.56;;;-146.77;33.05
55410;BME280;41279;43.546;16.426;2023-02-14T11:42:57;52666.59;;;-146.77;32.90
55410;BME280;41279;43.546;16.426;2023-02-14T11:45:35;52638.56;;;-146.77;33.08
55410;BME280;41279;43.546;16.426;2023-02-14T11:48:08;52710.63;;;-146.77;30.67
55410;BME280;41279;43.546;16.426;2023-02-14T11:50:39;52692.63;;;-146.77;30.59
55410;BME280;41279;43.546;16.426;2023-02-14T11:53:10;52658.56;;;-146.77;28.60
55410;BME280;41279;43.546;16.426;2023-02-14T11:55:37;52582.50;;;-146.77;28.62
55410;BME280;41279;43.546;16.426;2023-02-14T11:58:05;52620.53;;;-146.77;28.09
55410;BME280;41279;43.546;16.426;2023-02-14T12:00:31;52674.59;;;-146.77;27.81
55410;BME280;41279;43.546;16.426;2023-02-14T12:02:59;52708.63;;;-146.77;27.81
55410;BME280;41279;43.546;16.426;2023-02-14T12:05:55;52576.50;;;-146.77;33.49
55410;BME280;41279;43.546;16.426;2023-02-14T12:08:29;52498.41;;;-146.77;36.04
55410;BME280;41279;43.546;16.426;2023-02-14T12:11:03;52522.44;;;-146.77;37.77
55410;BME280;41279;43.546;16.426;2023-02-14T12:13:29;52566.47;;;-146.77;35.46
55410;BME280;41279;43.546;16.426;2023-02-14T12:15:57;52562.47;;;-146.77;36.64
55410;BME280;41279;43.546;16.426;2023-02-14T12:29:34;52590.50;;;-146.77;36.69
55410;BME280;41279;43.546;16.426;2023-02-14T12:32:31;52554.47;;;-146.77;36.55
55410;BME280;41279;43.546;16.426;2023-02-14T12:43:08;52624.53;;;-146.77;36.69
55410;BME280;41279;43.546;16.426;2023-02-14T12:49:43;52622.53;;;-146.77;35.28
55410;BME280;41279;43.546;16.426;2023-02-14T13:08:12;52672.59;;;-146.77;33.43
55410;BME280;41279;43.546;16.426;2023-02-14T13:16:22;52626.53;;;-146.77;33.48
55410;BME280;41279;43.546;16.426;2023-02-14T13:21:36;52618.53;;;-146.77;35.08
55410;BME280;41279;43.546;16.426;2023-02-14T13:24:18;52630.53;;;-146.77;36.29
55410;BME280;41279;43.546;16.426;2023-02-14T13:26:48;52692.63;;;-146.77;33.50
55410;BME280;41279;43.546;16.426;2023-02-14T13:29:20;52632.53;;;-146.77;34.14
55410;BME280;41279;43.546;16.426;2023-02-14T13:31:48;52618.53;;;-146.77;33.70
55410;BME280;41279;43.546;16.426;2023-02-14T13:34:40;52592.50;;;-146.77;34.15
55410;BME280;41279;43.546;16.426;2023-02-14T13:37:11;52624.53;;;-146.77;34.46
55410;BME280;41279;43.546;16.426;2023-02-14T13:48:11;52612.53;;;-146.77;32.27
55410;BME280;41279;43.546;16.426;2023-02-14T13:53:42;52646.56;;;-146.77;31.07
55410;BME280;41279;43.546;16.426;2023-02-14T14:07:13;52650.56;;;-146.77;33.14
55410;BME280;41279;43.546;16.426;2023-02-14T14:15:09;52642.56;;;-146.77;32.11
55410;BME280;41279;43.546;16.426;2023-02-14T14:17:43;52646.56;;;-146.77;32.43
55410;BME280;41279;43.546;16.426;2023-02-14T14:22:57;52610.53;;;-146.77;32.34
55410;BME280;41279;43.546;16.426;2023-02-14T14:25:32;52602.50;;;-146.77;31.75
55410;BME280;41279;43.546;16.426;2023-02-14T14:27:59;52618.53;;;-146.77;31.31
55410;BME280;41279;43.546;16.426;2023-02-14T14:30:30;52594.50;;;-146.77;30.90
55410;BME280;41279;43.546;16.426;2023-02-14T14:33:23;52584.50;;;-146.77;31.51
55410;BME280;41279;43.546;16.426;2023-02-14T14:38:20;52598.50;;;-146.77;32.63
55410;BME280;41279;43.546;16.426;2023-02-14T14:40:47;52602.50;;;-146.77;32.66
55410;BME280;41279;43.546;16.426;2023-02-14T14:43:17;52560.47;;;-146.77;33.08
55410;BME280;41279;43.546;16.426;2023-02-14T14:45:46;52568.47;;;-146.77;32.66
55410;BME280;41279;43.546;16.426;2023-02-14T14:48:17;52592.50;;;-146.77;32.29
55410;BME280;41279;43.546;16.426;2023-02-14T14:50:46;52620.53;;;-146.77;32.21
55410;BME280;41279;43.546;16.426;2023-02-14T14:53:26;52578.50;;;-146.77;32.38
55410;BME280;41279;43.546;16.426;2023-02-14T14:55:53;52600.50;;;-146.77;32.08
55410;BME280;41279;43.546;16.426;2023-02-14T14:58:31;52622.53;;;-146.77;32.29
55410;BME280;41279;43.546;16.426;2023-02-14T15:00:57;52650.56;;;-146.77;32.40
55410;BME280;41279;43.546;16.426;2023-02-14T15:03:24;52628.53;;;-146.77;32.51
55410;BME280;41279;43.546;16.426;2023-02-14T15:06:05;52636.56;;;-146.77;32.68
55410;BME280;41279;43.546;16.426;2023-02-14T15:08:32;52552.47;;;-146.77;34.20
55410;BME280;41279;43.546;16.426;2023-02-14T15:11:12;52566.47;;;-146.77;34.70
55410;BME280;41279;43.546;16.426;2023-02-14T15:13:59;52578.50;;;-146.77;33.69
55410;BME280;41279;43.546;16.426;2023-02-14T15:16:37;52592.50;;;-146.77;34.19
55410;BME280;41279;43.546;16.426;2023-02-14T15:21:51;52540.44;;;-146.77;35.13
55410;BME280;41279;43.546;16.426;2023-02-14T15:24:17;52534.44;;;-146.77;35.45
55410;BME280;41279;43.546;16.426;2023-02-14T15:26:45;52566.47;;;-146.77;34.65
55410;BME280;41279;43.546;16.426;2023-02-14T15:29:21;52576.50;;;-146.77;34.11